Darstellungsparameter: Aktuell verwendete Einstellungen:
Skalierung der Graphiken ... ?
xyx+y,   Skalierungsfaktor:      Skalierung: Modus: x, Faktor: 1
Darstellungszeitraum ... ?
Vom - - bis: - -   Zeitraum: 02.05.2010 - 04.05.2010
Min/Max/Avg-Anzeige ... ?
Zeige MMA aktuell
Zeige MMA Monat
Zeige MMA alles
Zeige --A aktuell
Zeige --A Monat
Zeige --A alles
Keine MMA-Anzeige
MMA:
Average (ber die Originaldaten)
MMA-Basis: 02.05.2010 - 04.05.2010
Quicknavigation für Darstellung... ?
Tage:      1T, 2T, 3T, 5T -1T -2T -3T -5T +1T +2T +3T +5T
Wochen: 1W, 2W, 3W -1W -2W -3W +1W +2W +3W
Monate: 1M, 3M, 6M -1M -3M -6M +1M +3M +6M
Jahre:    1J, 3J, 5J, 10J -1J -3J -5J -10J +1J +3J +5J +10J
Nutze für die Darstellung ... ?
Originaldaten oder Mittelwerte auf ...
Stundenbasis Tagesbasis Wochenbasis
Monatsbasis Jahresbasis      Datenbasis: Original-Daten
Darstellen als:
Statistik (Auto) Statistik J:M      Darstellung:
Zur Graphik,    zurück zur Übersicht aller Sensoren.
 
Tabellarische Datenbersicht: ?
 
Sensor: Nr:Datum:Temp:Abs-Feuchte:Windchill:Wind:
Aussen-T/F 1 02-05-2010 00:06:03 13.8 C 6.55 g/m*3 13.8 C 0 km/h
2 02-05-2010 00:18:03 13.3 C 6.93 g/m*3 13.3 C 0 km/h
3 02-05-2010 00:30:03 12.6 C 7.3 g/m*3 12.6 C 0 km/h
4 02-05-2010 00:42:03 12.6 C 7.41 g/m*3 12.6 C 0 km/h
5 02-05-2010 00:54:03 12.5 C 7.26 g/m*3 12.5 C 0 km/h
6 02-05-2010 01:06:03 12.5 C 7.26 g/m*3 12.5 C 0 km/h
7 02-05-2010 01:18:03 12.6 C 7.3 g/m*3 12.6 C 0 km/h
8 02-05-2010 01:30:03 12.6 C 7.19 g/m*3 12.6 C 0 km/h
9 02-05-2010 01:42:03 12.5 C 7.26 g/m*3 12.5 C 0 km/h
10 02-05-2010 01:54:03 12.5 C 7.26 g/m*3 12.5 C 0 km/h
11 02-05-2010 02:06:03 12.5 C 7.26 g/m*3 12.5 C 0 km/h
12 02-05-2010 02:18:03 12.4 C 7.21 g/m*3 12.4 C 0 km/h
13 02-05-2010 02:30:03 12.3 C 7.28 g/m*3 12.3 C 0 km/h
14 02-05-2010 02:42:03 12.2 C 7.23 g/m*3 12.2 C 0 km/h
15 02-05-2010 02:54:03 12.1 C 7.29 g/m*3 12.1 C 0 km/h
16 02-05-2010 03:06:03 12 C 7.25 g/m*3 12 C 0 km/h
17 02-05-2010 03:18:03 12 C 7.14 g/m*3 12 C 0 km/h
18 02-05-2010 03:30:04 11.9 C 7.31 g/m*3 11.9 C 0 km/h
19 02-05-2010 03:42:04 11.7 C 7.32 g/m*3 11.7 C 0 km/h
20 02-05-2010 03:54:04 11.6 C 7.17 g/m*3 11.6 C 0 km/h
21 02-05-2010 04:06:04 11.6 C 7.17 g/m*3 11.6 C 0 km/h
22 02-05-2010 04:18:04 11.6 C 7.17 g/m*3 11.6 C 0 km/h
23 02-05-2010 04:30:04 11.6 C 7.28 g/m*3 11.6 C 0 km/h
24 02-05-2010 04:42:04 11.7 C 7.43 g/m*3 11.7 C 0 km/h
25 02-05-2010 04:54:04 11.3 C 7.24 g/m*3 11.3 C 0 km/h
Sensor: Nr:Datum:Temp:Abs-Feuchte:Windchill:Wind:
Aussen-T/F 26 02-05-2010 05:06:04 11.1 C 7.05 g/m*3 11.1 C 0 km/h
27 02-05-2010 05:18:04 11.1 C 7.05 g/m*3 11.1 C 0 km/h
28 02-05-2010 05:30:04 11.1 C 7.15 g/m*3 11.1 C 0 km/h
29 02-05-2010 05:42:04 11 C 7.11 g/m*3 11 C 0 km/h
30 02-05-2010 05:54:04 11 C 7.11 g/m*3 11 C 0 km/h
31 02-05-2010 06:06:04 10.9 C 7.16 g/m*3 10.9 C 0 km/h
32 02-05-2010 06:18:04 11 C 7.11 g/m*3 11 C 0 km/h
33 02-05-2010 06:30:04 11 C 7.31 g/m*3 11 C 0 km/h
34 02-05-2010 06:42:04 10.9 C 7.26 g/m*3 10.9 C 0 km/h
35 02-05-2010 06:54:04 10.9 C 7.26 g/m*3 10.9 C 0 km/h
36 02-05-2010 07:06:04 11 C 7.21 g/m*3 11 C 0 km/h
37 02-05-2010 07:18:04 11.2 C 7.4 g/m*3 11.2 C 0 km/h
38 02-05-2010 07:30:04 11.4 C 7.49 g/m*3 11.4 C 0 km/h
39 02-05-2010 07:42:04 11.4 C 7.49 g/m*3 11.4 C 0 km/h
40 02-05-2010 07:54:02 11.4 C 7.49 g/m*3 11.4 C 0 km/h
41 02-05-2010 08:06:02 11.4 C 7.6 g/m*3 11.4 C 0 km/h
42 02-05-2010 08:18:02 11.6 C 7.8 g/m*3 11.6 C 0 km/h
43 02-05-2010 08:30:02 11.2 C 7.7 g/m*3 11.2 C 0 km/h
44 02-05-2010 08:42:02 11.2 C 7.8 g/m*3 11.2 C 0 km/h
45 02-05-2010 08:54:01 11.5 C 8.06 g/m*3 11.5 C 0 km/h
46 02-05-2010 09:06:02 11.8 C 8.21 g/m*3 11.8 C 0 km/h
47 02-05-2010 09:18:01 11.8 C 8 g/m*3 11.8 C 0 km/h
48 02-05-2010 09:30:01 12.1 C 8.04 g/m*3 12.1 C 0 km/h
49 02-05-2010 09:42:02 12.4 C 8.09 g/m*3 12.4 C 0 km/h
50 02-05-2010 09:54:01 12.9 C 8.11 g/m*3 12.9 C 0 km/h
Sensor: Nr:Datum:Temp:Abs-Feuchte:Windchill:Wind:
Aussen-T/F 51 02-05-2010 10:06:02 13.1 C 8.1 g/m*3 13.1 C 0 km/h
52 02-05-2010 10:18:01 13.5 C 8.07 g/m*3 13.5 C 0 km/h
53 02-05-2010 10:30:01 14.1 C 8.01 g/m*3 14.1 C 0 km/h
54 02-05-2010 10:42:02 14.9 C 8.03 g/m*3 14.9 C 0 km/h
55 02-05-2010 10:54:01 15.5 C 7.8 g/m*3 15.5 C 0 km/h
56 02-05-2010 11:06:02 16.2 C 7.58 g/m*3 16.2 C 0 km/h
57 02-05-2010 11:18:02 16.7 C 7.82 g/m*3 16.7 C 0 km/h
58 02-05-2010 11:30:02 17.4 C 7.26 g/m*3 17.4 C 0 km/h
59 02-05-2010 11:42:01 18.1 C 7.11 g/m*3 18.1 C 0 km/h
60 02-05-2010 11:54:02 17.9 C 7.02 g/m*3 17.9 C 0 km/h
61 02-05-2010 12:06:01 16.4 C 6.42 g/m*3 16.4 C 0 km/h
62 02-05-2010 12:18:02 13.5 C 7.37 g/m*3 13.5 C 0 km/h
63 02-05-2010 12:30:02 12.5 C 7.92 g/m*3 12.5 C 0 km/h
64 02-05-2010 12:42:01 11.4 C 7.7 g/m*3 11.4 C 0 km/h
65 02-05-2010 12:54:02 10.7 C 8.05 g/m*3 10.7 C 0 km/h
66 02-05-2010 13:06:02 10.8 C 8.3 g/m*3 10.8 C 0 km/h
67 02-05-2010 13:18:02 11.8 C 8.95 g/m*3 11.8 C 0 km/h
68 02-05-2010 13:30:02 11.6 C 8.63 g/m*3 11.6 C 0 km/h
69 02-05-2010 13:42:03 12.2 C 8.85 g/m*3 12.2 C 0 km/h
70 02-05-2010 13:54:02 13.1 C 8.9 g/m*3 13.1 C 0 km/h
71 02-05-2010 14:06:02 13.9 C 8.99 g/m*3 13.9 C 0 km/h
72 02-05-2010 14:18:02 14.5 C 8.95 g/m*3 14.5 C 0 km/h
73 02-05-2010 14:30:02 15.2 C 9.09 g/m*3 15.2 C 0 km/h
74 02-05-2010 14:42:02 15.3 C 8.88 g/m*3 15.3 C 0 km/h
75 02-05-2010 14:54:02 15.4 C 8.54 g/m*3 15.4 C 0 km/h
Sensor: Nr:Datum:Temp:Abs-Feuchte:Windchill:Wind:
Aussen-T/F 76 02-05-2010 15:06:02 14.9 C 8.03 g/m*3 14.9 C 0 km/h
77 02-05-2010 15:18:02 15.9 C 8.13 g/m*3 15.9 C 0 km/h
78 02-05-2010 15:30:02 17.7 C 7.39 g/m*3 17.7 C 0 km/h
79 02-05-2010 15:42:02 18.7 C 6.56 g/m*3 18.7 C 0 km/h
80 02-05-2010 15:54:02 18.6 C 6.05 g/m*3 18.6 C 0 km/h
81 02-05-2010 16:06:02 19.4 C 6.17 g/m*3 19.4 C 0 km/h
82 02-05-2010 16:18:02 18.8 C 5.96 g/m*3 18.8 C 0 km/h
83 02-05-2010 16:30:02 18 C 6.6 g/m*3 18 C 0 km/h
84 02-05-2010 16:42:02 17.3 C 7.37 g/m*3 17.3 C 0 km/h
85 02-05-2010 16:54:01 13.5 C 7.25 g/m*3 13.5 C 0 km/h
86 02-05-2010 17:06:02 12.3 C 8.25 g/m*3 12.3 C 0 km/h
87 02-05-2010 17:18:01 13.4 C 9.18 g/m*3 13.4 C 0 km/h
88 02-05-2010 17:30:01 15.2 C 8.83 g/m*3 15.2 C 0 km/h
89 02-05-2010 17:42:01 16.5 C 8.28 g/m*3 16.5 C 0 km/h
90 02-05-2010 17:54:01 17.2 C 8.05 g/m*3 17.2 C 0 km/h
91 02-05-2010 18:06:01 18.5 C 7.59 g/m*3 18.5 C 0 km/h
92 02-05-2010 18:18:02 18 C 6.91 g/m*3 18 C 0 km/h
93 02-05-2010 18:30:02 16.7 C 6.68 g/m*3 16.7 C 0 km/h
94 02-05-2010 18:42:01 16.3 C 6.94 g/m*3 16.3 C 0 km/h
95 02-05-2010 18:54:03 16.4 C 7.12 g/m*3 16.4 C 0 km/h
96 02-05-2010 19:06:02 17.5 C 6.71 g/m*3 17.5 C 0 km/h
97 02-05-2010 19:18:02 16.9 C 6.9 g/m*3 16.9 C 0 km/h
98 02-05-2010 19:30:02 18 C 6.91 g/m*3 18 C 0 km/h
99 02-05-2010 19:42:02 17.6 C 6.75 g/m*3 17.6 C 0 km/h
100 02-05-2010 19:54:02 17.3 C 6.48 g/m*3 17.3 C 0 km/h
Sensor: Nr:Datum:Temp:Abs-Feuchte:Windchill:Wind:
Aussen-T/F 101 02-05-2010 20:06:02 17.3 C 6.92 g/m*3 17.3 C 0 km/h
102 02-05-2010 20:18:02 17 C 7.23 g/m*3 17 C 0 km/h
103 02-05-2010 20:30:02 16.2 C 7.31 g/m*3 16.2 C 0 km/h
104 02-05-2010 20:42:02 15.1 C 7.35 g/m*3 15.1 C 0 km/h
105 02-05-2010 20:54:02 14.1 C 7.4 g/m*3 14.1 C 0 km/h
106 02-05-2010 21:06:02 13.4 C 7.56 g/m*3 13.4 C 0 km/h
107 02-05-2010 21:18:02 12.8 C 7.62 g/m*3 12.8 C 0 km/h
108 02-05-2010 21:30:03 12.5 C 7.7 g/m*3 12.5 C 0 km/h
109 02-05-2010 21:42:01 12.3 C 7.82 g/m*3 12.3 C 0 km/h
110 02-05-2010 21:54:03 12.1 C 7.72 g/m*3 12.1 C 0 km/h
111 02-05-2010 22:06:03 11.8 C 7.79 g/m*3 11.8 C 0 km/h
112 02-05-2010 22:19:04 11.6 C 7.8 g/m*3 11.6 C 0 km/h
113 02-05-2010 22:31:04 11.3 C 7.65 g/m*3 11.3 C 0 km/h
114 02-05-2010 22:43:04 11.2 C 7.7 g/m*3 11.2 C 0 km/h
115 02-05-2010 22:55:04 11 C 7.61 g/m*3 11 C 0 km/h
116 02-05-2010 23:07:04 10.8 C 7.61 g/m*3 10.8 C 0 km/h
117 02-05-2010 23:19:04 10.6 C 7.52 g/m*3 10.6 C 0 km/h
118 02-05-2010 23:31:04 10.2 C 7.33 g/m*3 10.2 C 0 km/h
119 02-05-2010 23:43:04 10.2 C 7.42 g/m*3 10.2 C 0 km/h
120 02-05-2010 23:55:04 10.2 C 7.42 g/m*3 10.2 C 0 km/h
121 03-05-2010 00:07:04 10.1 C 7.28 g/m*3 10.1 C 0 km/h
122 03-05-2010 00:19:04 10 C 7.33 g/m*3 10 C 0 km/h
123 03-05-2010 00:31:04 9.9 C 7.38 g/m*3 9.9 C 0 km/h
124 03-05-2010 00:43:04 9.5 C 7.19 g/m*3 9.5 C 0 km/h
125 03-05-2010 00:55:04 9.3 C 7.19 g/m*3 9.3 C 0 km/h
Sensor: Nr:Datum:Temp:Abs-Feuchte:Windchill:Wind:
Aussen-T/F 126 03-05-2010 01:07:04 9.2 C 7.14 g/m*3 9.2 C 0 km/h
127 03-05-2010 01:19:04 9.1 C 7.1 g/m*3 9.1 C 0 km/h
128 03-05-2010 01:31:04 9.1 C 7.1 g/m*3 9.1 C 0 km/h
129 03-05-2010 01:43:04 8.7 C 7.09 g/m*3 8.7 C 0 km/h
130 03-05-2010 01:55:04 8.7 C 7.09 g/m*3 8.7 C 0 km/h
131 03-05-2010 02:07:04 8.5 C 7 g/m*3 8.5 C 0 km/h
132 03-05-2010 02:19:05 8.1 C 6.82 g/m*3 8.1 C 0 km/h
133 03-05-2010 02:31:05 8 C 6.78 g/m*3 8 C 0 km/h
134 03-05-2010 02:43:05 8 C 6.78 g/m*3 8 C 0 km/h
135 03-05-2010 02:55:05 8 C 6.78 g/m*3 8 C 0 km/h
136 03-05-2010 03:07:05 8.2 C 7.03 g/m*3 8.2 C 0 km/h
137 03-05-2010 03:19:05 8.2 C 7.03 g/m*3 8.2 C 0 km/h
138 03-05-2010 03:31:05 8 C 6.94 g/m*3 8 C 0 km/h
139 03-05-2010 03:43:05 8 C 7.03 g/m*3 8 C 0 km/h
140 03-05-2010 03:55:05 8.1 C 7.07 g/m*3 8.1 C 0 km/h
141 03-05-2010 04:07:05 8.2 C 7.12 g/m*3 8.2 C 0 km/h
142 03-05-2010 04:19:05 8.3 C 7.16 g/m*3 8.3 C 0 km/h
143 03-05-2010 04:31:05 8.4 C 7.21 g/m*3 8.4 C 0 km/h
144 03-05-2010 04:43:05 8.6 C 7.22 g/m*3 8.6 C 0 km/h
145 03-05-2010 04:55:05 8.6 C 7.22 g/m*3 8.6 C 0 km/h
146 03-05-2010 05:07:05 8.6 C 7.13 g/m*3 8.6 C 0 km/h
147 03-05-2010 05:19:05 8.6 C 7.13 g/m*3 8.6 C 0 km/h
148 03-05-2010 05:31:05 8.6 C 7.13 g/m*3 8.6 C 0 km/h
149 03-05-2010 05:43:05 8.7 C 7.18 g/m*3 8.7 C 0 km/h
150 03-05-2010 05:55:05 8.5 C 7.09 g/m*3 8.5 C 0 km/h
Sensor: Nr:Datum:Temp:Abs-Feuchte:Windchill:Wind:
Aussen-T/F 151 03-05-2010 06:07:05 8.6 C 7.13 g/m*3 8.6 C 0 km/h
152 03-05-2010 06:19:05 8.7 C 7.18 g/m*3 8.7 C 0 km/h
153 03-05-2010 06:31:05 8.6 C 7.13 g/m*3 8.6 C 0 km/h
154 03-05-2010 06:43:05 8.6 C 7.13 g/m*3 8.6 C 0 km/h
155 03-05-2010 06:55:02 8.5 C 7.09 g/m*3 8.5 C 0 km/h
156 03-05-2010 07:07:03 8.2 C 6.95 g/m*3 8.2 C 0 km/h
157 03-05-2010 07:19:02 8.3 C 7 g/m*3 8.3 C 0 km/h
158 03-05-2010 07:31:02 8.2 C 7.03 g/m*3 8.2 C 0 km/h
159 03-05-2010 07:43:02 8.5 C 7.17 g/m*3 8.5 C 0 km/h
160 03-05-2010 07:55:01 8.8 C 7.4 g/m*3 8.8 C 0 km/h
161 03-05-2010 08:07:02 9.1 C 7.28 g/m*3 9.1 C 0 km/h
162 03-05-2010 08:19:02 9.6 C 7.24 g/m*3 9.6 C 0 km/h
163 03-05-2010 08:31:02 10 C 6.86 g/m*3 10 C 0 km/h
164 03-05-2010 08:43:02 9.9 C 6.72 g/m*3 9.9 C 0 km/h
165 03-05-2010 08:55:02 10 C 6.67 g/m*3 10 C 0 km/h
166 03-05-2010 09:07:02 10.1 C 6.62 g/m*3 10.1 C 0 km/h
167 03-05-2010 09:19:02 10.6 C 6.83 g/m*3 10.6 C 0 km/h
168 03-05-2010 09:31:02 10.5 C 6.69 g/m*3 10.5 C 0 km/h
169 03-05-2010 09:43:02 10.8 C 6.82 g/m*3 10.8 C 0 km/h
170 03-05-2010 09:55:01 10.8 C 6.72 g/m*3 10.8 C 0 km/h
171 03-05-2010 10:07:02 10.8 C 6.72 g/m*3 10.8 C 0 km/h
172 03-05-2010 10:19:01 11 C 6.71 g/m*3 11 C 0 km/h
173 03-05-2010 10:31:01 10.9 C 6.76 g/m*3 10.9 C 0 km/h
174 03-05-2010 10:43:01 10.8 C 6.72 g/m*3 10.8 C 0 km/h
175 03-05-2010 10:55:01 11.5 C 6.92 g/m*3 11.5 C 0 km/h
Sensor: Nr:Datum:Temp:Abs-Feuchte:Windchill:Wind:
Aussen-T/F 176 03-05-2010 11:07:02 12.1 C 6.65 g/m*3 12.1 C 0 km/h
177 03-05-2010 11:19:01 11.9 C 6.67 g/m*3 11.9 C 0 km/h
178 03-05-2010 11:31:01 12.1 C 6.65 g/m*3 12.1 C 0 km/h
179 03-05-2010 11:43:01 14.1 C 6.8 g/m*3 14.1 C 0 km/h
180 03-05-2010 11:55:01 14.5 C 6.72 g/m*3 14.5 C 0 km/h
181 03-05-2010 12:07:01 14.7 C 6.55 g/m*3 14.7 C 0 km/h
182 03-05-2010 12:19:02 15.7 C 6.42 g/m*3 15.7 C 0 km/h
183 03-05-2010 12:31:01 15.2 C 6.23 g/m*3 15.2 C 0 km/h
184 03-05-2010 12:43:01 14.5 C 6.09 g/m*3 14.5 C 0 km/h
185 03-05-2010 12:55:02 13.6 C 6.94 g/m*3 13.6 C 0 km/h
186 03-05-2010 13:07:01 14.2 C 6.84 g/m*3 14.2 C 0 km/h
187 03-05-2010 13:19:01 14.9 C 6.88 g/m*3 14.9 C 0 km/h
188 03-05-2010 13:31:01 15.7 C 6.42 g/m*3 15.7 C 0 km/h
189 03-05-2010 13:43:01 16.7 C 6.25 g/m*3 16.7 C 0 km/h
190 03-05-2010 13:55:02 11.3 C 5.71 g/m*3 11.3 C 0 km/h
191 03-05-2010 14:07:02 11.2 C 6.28 g/m*3 11.2 C 0 km/h
192 03-05-2010 14:19:02 10.1 C 6.43 g/m*3 10.1 C 0 km/h
193 03-05-2010 14:31:01 9.1 C 6.83 g/m*3 9.1 C 0 km/h
194 03-05-2010 14:43:01 9 C 7.23 g/m*3 9 C 0 km/h
195 03-05-2010 14:55:02 8.4 C 7.13 g/m*3 8.4 C 0 km/h
196 03-05-2010 15:07:01 8.8 C 7.49 g/m*3 8.8 C 0 km/h
197 03-05-2010 15:19:02 9 C 7.67 g/m*3 9 C 0 km/h
198 03-05-2010 15:31:02 9.6 C 8.06 g/m*3 9.6 C 0 km/h
199 03-05-2010 15:43:02 10.2 C 8.18 g/m*3 10.2 C 0 km/h
200 03-05-2010 15:55:02 11.1 C 8.56 g/m*3 11.1 C 0 km/h
Sensor: Nr:Datum:Temp:Abs-Feuchte:Windchill:Wind:
Aussen-T/F 201 03-05-2010 16:07:02 11.1 C 7.86 g/m*3 11.1 C 0 km/h
202 03-05-2010 16:19:02 11 C 7.51 g/m*3 11 C 0 km/h
203 03-05-2010 16:31:02 10.2 C 7.23 g/m*3 10.2 C 0 km/h
204 03-05-2010 16:43:02 10.1 C 7.28 g/m*3 10.1 C 0 km/h
205 03-05-2010 16:55:01 10.5 C 7.37 g/m*3 10.5 C 0 km/h
206 03-05-2010 17:07:02 10.1 C 6.9 g/m*3 10.1 C 0 km/h
207 03-05-2010 17:19:01 10.4 C 7.42 g/m*3 10.4 C 0 km/h
208 03-05-2010 17:31:02 10.7 C 7.46 g/m*3 10.7 C 0 km/h
209 03-05-2010 17:43:03 11.4 C 7.49 g/m*3 11.4 C 0 km/h
210 03-05-2010 17:55:02 11.5 C 7.02 g/m*3 11.5 C 0 km/h
211 03-05-2010 18:07:02 11.3 C 7.14 g/m*3 11.3 C 0 km/h
212 03-05-2010 18:19:01 10.7 C 6.58 g/m*3 10.7 C 0 km/h
213 03-05-2010 18:31:02 10.9 C 6.96 g/m*3 10.9 C 0 km/h
214 03-05-2010 18:43:02 11 C 7.01 g/m*3 11 C 0 km/h
215 03-05-2010 18:55:02 10.9 C 6.66 g/m*3 10.9 C 0 km/h
216 03-05-2010 19:07:02 10.8 C 6.62 g/m*3 10.8 C 0 km/h
217 03-05-2010 19:19:01 10.7 C 6.58 g/m*3 10.7 C 0 km/h
218 03-05-2010 19:31:02 10.4 C 6.65 g/m*3 10.4 C 0 km/h
219 03-05-2010 19:43:02 10.3 C 6.42 g/m*3 10.3 C 0 km/h
220 03-05-2010 19:55:02 10.3 C 6.42 g/m*3 10.3 C 0 km/h
221 03-05-2010 20:07:02 10.1 C 6.15 g/m*3 10.1 C 0 km/h
222 03-05-2010 20:19:02 10 C 6.01 g/m*3 10 C 0 km/h
223 03-05-2010 20:31:02 9.8 C 6.12 g/m*3 9.8 C 0 km/h
224 03-05-2010 20:43:02 9.5 C 5.92 g/m*3 9.5 C 0 km/h
225 03-05-2010 20:55:01 9.3 C 6.11 g/m*3 9.3 C 0 km/h
Sensor: Nr:Datum:Temp:Abs-Feuchte:Windchill:Wind:
Aussen-T/F 226 03-05-2010 21:07:02 9.2 C 6.07 g/m*3 9.2 C 0 km/h
227 03-05-2010 21:19:02 9.2 C 6.25 g/m*3 9.2 C 0 km/h
228 03-05-2010 21:31:02 9.2 C 6.25 g/m*3 9.2 C 0 km/h
229 03-05-2010 21:43:02 8.9 C 6.39 g/m*3 8.9 C 0 km/h
230 03-05-2010 21:55:02 8.9 C 6.31 g/m*3 8.9 C 0 km/h
231 03-05-2010 22:07:02 8.8 C 6.44 g/m*3 8.8 C 0 km/h
232 03-05-2010 22:20:05 8.7 C 6.49 g/m*3 8.7 C 0 km/h
233 03-05-2010 22:32:05 8.5 C 6.49 g/m*3 8.5 C 0 km/h
234 03-05-2010 22:44:05 8.5 C 6.57 g/m*3 8.5 C 0 km/h
235 03-05-2010 22:56:05 8.4 C 6.45 g/m*3 8.4 C 0 km/h
236 03-05-2010 23:08:05 8.4 C 6.45 g/m*3 8.4 C 0 km/h
237 03-05-2010 23:20:05 8.4 C 6.53 g/m*3 8.4 C 0 km/h
238 03-05-2010 23:32:05 8.4 C 6.53 g/m*3 8.4 C 0 km/h
239 03-05-2010 23:44:05 8.3 C 6.49 g/m*3 8.3 C 0 km/h
240 03-05-2010 23:56:05 8.3 C 6.49 g/m*3 8.3 C 0 km/h
241 04-05-2010 00:08:05 8 C 6.37 g/m*3 8 C 0 km/h
242 04-05-2010 00:20:05 7.5 C 6.24 g/m*3 7.5 C 0 km/h
243 04-05-2010 00:32:05 7.2 C 6.28 g/m*3 7.2 C 0 km/h
244 04-05-2010 00:44:05 7.4 C 6.44 g/m*3 7.4 C 0 km/h
245 04-05-2010 00:56:05 7.8 C 6.69 g/m*3 7.8 C 0 km/h
246 04-05-2010 01:08:05 8 C 6.53 g/m*3 8 C 0 km/h
247 04-05-2010 01:20:06 8.1 C 6.49 g/m*3 8.1 C 0 km/h
248 04-05-2010 01:32:06 8.2 C 6.45 g/m*3 8.2 C 0 km/h
249 04-05-2010 01:44:06 8.3 C 6.49 g/m*3 8.3 C 0 km/h
250 04-05-2010 01:56:06 8.4 C 6.53 g/m*3 8.4 C 0 km/h
Sensor: Nr:Datum:Temp:Abs-Feuchte:Windchill:Wind:
Aussen-T/F 251 04-05-2010 02:08:06 8.4 C 6.53 g/m*3 8.4 C 0 km/h
252 04-05-2010 02:20:06 8.4 C 6.53 g/m*3 8.4 C 0 km/h
253 04-05-2010 02:32:06 8.4 C 6.53 g/m*3 8.4 C 0 km/h
254 04-05-2010 02:44:06 8.3 C 6.49 g/m*3 8.3 C 0 km/h
255 04-05-2010 02:56:06 8.4 C 6.62 g/m*3 8.4 C 0 km/h
256 04-05-2010 03:08:06 8.4 C 6.62 g/m*3 8.4 C 0 km/h
257 04-05-2010 03:20:06 8.4 C 6.62 g/m*3 8.4 C 0 km/h
258 04-05-2010 03:32:06 8.3 C 6.57 g/m*3 8.3 C 0 km/h
259 04-05-2010 03:44:06 8.2 C 6.62 g/m*3 8.2 C 0 km/h
260 04-05-2010 03:56:06 8.1 C 6.66 g/m*3 8.1 C 0 km/h
261 04-05-2010 04:08:06 8 C 6.61 g/m*3 8 C 0 km/h
262 04-05-2010 04:20:06 7.9 C 6.74 g/m*3 7.9 C 0 km/h
263 04-05-2010 04:32:06 7.9 C 6.82 g/m*3 7.9 C 0 km/h
264 04-05-2010 04:44:06 7.9 C 6.82 g/m*3 7.9 C 0 km/h
265 04-05-2010 04:56:06 7.9 C 6.82 g/m*3 7.9 C 0 km/h
266 04-05-2010 05:08:06 8 C 6.78 g/m*3 8 C 0 km/h
267 04-05-2010 05:20:06 8.1 C 6.82 g/m*3 8.1 C 0 km/h
268 04-05-2010 05:32:07 8.2 C 6.87 g/m*3 8.2 C 0 km/h
269 04-05-2010 05:44:07 8.2 C 6.87 g/m*3 8.2 C 0 km/h
270 04-05-2010 05:56:07 8.2 C 6.87 g/m*3 8.2 C 0 km/h
271 04-05-2010 06:08:07 8.1 C 6.82 g/m*3 8.1 C 0 km/h
272 04-05-2010 06:20:07 8.2 C 6.87 g/m*3 8.2 C 0 km/h
273 04-05-2010 06:32:07 8.2 C 6.87 g/m*3 8.2 C 0 km/h
274 04-05-2010 06:44:07 8.3 C 6.91 g/m*3 8.3 C 0 km/h
275 04-05-2010 06:56:02 8.4 C 6.96 g/m*3 8.4 C 0 km/h
Sensor: Nr:Datum:Temp:Abs-Feuchte:Windchill:Wind:
Aussen-T/F 276 04-05-2010 07:08:01 8.5 C 7 g/m*3 8.5 C 0 km/h
277 04-05-2010 07:20:02 8.6 C 6.96 g/m*3 8.6 C 0 km/h
278 04-05-2010 07:32:01 8.7 C 7.01 g/m*3 8.7 C 0 km/h
279 04-05-2010 07:44:01 8.7 C 6.92 g/m*3 8.7 C 0 km/h
280 04-05-2010 07:56:02 8.8 C 6.79 g/m*3 8.8 C 0 km/h
281 04-05-2010 08:08:01 9.2 C 6.61 g/m*3 9.2 C 0 km/h
282 04-05-2010 08:20:01 9 C 6.44 g/m*3 9 C 0 km/h
283 04-05-2010 08:32:02 9.1 C 6.48 g/m*3 9.1 C 0 km/h
284 04-05-2010 08:44:03 8.9 C 6.31 g/m*3 8.9 C 0 km/h
285 04-05-2010 08:56:02 8.9 C 6.31 g/m*3 8.9 C 0 km/h
286 04-05-2010 09:08:02 9.2 C 6.34 g/m*3 9.2 C 0 km/h
287 04-05-2010 09:20:01 9.1 C 6.21 g/m*3 9.1 C 0 km/h
288 04-05-2010 09:32:02 9.3 C 6.29 g/m*3 9.3 C 0 km/h
289 04-05-2010 09:44:02 9.3 C 6.2 g/m*3 9.3 C 0 km/h
290 04-05-2010 09:56:02 9.5 C 6.19 g/m*3 9.5 C 0 km/h
291 04-05-2010 10:08:02 9.6 C 6.14 g/m*3 9.6 C 0 km/h
292 04-05-2010 10:20:01 9.8 C 5.85 g/m*3 9.8 C 0 km/h
293 04-05-2010 10:32:02 9.8 C 5.85 g/m*3 9.8 C 0 km/h
294 04-05-2010 10:44:02 9.9 C 5.7 g/m*3 9.9 C 0 km/h
295 04-05-2010 10:56:01 10 C 5.54 g/m*3 10 C 0 km/h
296 04-05-2010 11:08:02 10.2 C 5.52 g/m*3 10.2 C 0 km/h
297 04-05-2010 11:20:02 10.5 C 5.24 g/m*3 10.5 C 0 km/h
298 04-05-2010 11:32:02 10.7 C 5.21 g/m*3 10.7 C 0 km/h
299 04-05-2010 11:44:02 11.1 C 5.04 g/m*3 11.1 C 0 km/h
300 04-05-2010 11:56:02 11.3 C 5 g/m*3 11.3 C 0 km/h
Sensor: Nr:Datum:Temp:Abs-Feuchte:Windchill:Wind:
Aussen-T/F 301 04-05-2010 12:08:02 10.8 C 4.94 g/m*3 10.8 C 0 km/h
302 04-05-2010 12:20:02 10.5 C 4.85 g/m*3 10.5 C 0 km/h
303 04-05-2010 12:32:01 10.6 C 4.78 g/m*3 10.6 C 0 km/h
304 04-05-2010 12:44:01 11.6 C 4.89 g/m*3 11.6 C 0 km/h
305 04-05-2010 12:56:02 12 C 4.69 g/m*3 12 C 0 km/h
306 04-05-2010 13:08:01 12.2 C 4.64 g/m*3 12.2 C 0 km/h
307 04-05-2010 13:20:02 11.7 C 4.71 g/m*3 11.7 C 0 km/h
308 04-05-2010 13:32:01 11.8 C 4.53 g/m*3 11.8 C 0 km/h
309 04-05-2010 13:44:01 12 C 4.48 g/m*3 12 C 0 km/h
310 04-05-2010 13:56:02 12.2 C 4.53 g/m*3 12.2 C 0 km/h
311 04-05-2010 14:08:02 12.1 C 4.5 g/m*3 12.1 C 0 km/h
312 04-05-2010 14:20:02 12.5 C 4.84 g/m*3 12.5 C 0 km/h
313 04-05-2010 14:32:02 13.1 C 4.56 g/m*3 13.1 C 0 km/h
314 04-05-2010 14:44:02 13.4 C 4.65 g/m*3 13.4 C 0 km/h
315 04-05-2010 14:56:02 13.5 C 4.44 g/m*3 13.5 C 0 km/h
316 04-05-2010 15:08:02 13.5 C 4.56 g/m*3 13.5 C 0 km/h
317 04-05-2010 15:20:02 13.8 C 4.41 g/m*3 13.8 C 0 km/h
318 04-05-2010 15:32:02 13.5 C 4.44 g/m*3 13.5 C 0 km/h
319 04-05-2010 15:44:02 13.5 C 4.56 g/m*3 13.5 C 0 km/h
320 04-05-2010 15:56:02 12.9 C 4.51 g/m*3 12.9 C 0 km/h
321 04-05-2010 16:08:02 12.5 C 4.51 g/m*3 12.5 C 0 km/h
322 04-05-2010 16:20:02 12.8 C 4.59 g/m*3 12.8 C 0 km/h
323 04-05-2010 16:32:02 12.5 C 4.4 g/m*3 12.5 C 0 km/h
324 04-05-2010 16:44:02 12.5 C 4.4 g/m*3 12.5 C 0 km/h
325 04-05-2010 16:56:01 12 C 4.26 g/m*3 12 C 0 km/h
Sensor: Nr:Datum:Temp:Abs-Feuchte:Windchill:Wind:
Aussen-T/F 326 04-05-2010 17:08:02 12 C 4.26 g/m*3 12 C 0 km/h
327 04-05-2010 17:20:01 11.4 C 4.31 g/m*3 11.4 C 0 km/h
328 04-05-2010 17:32:02 11.4 C 4.41 g/m*3 11.4 C 0 km/h
329 04-05-2010 17:44:02 11.5 C 4.34 g/m*3 11.5 C 0 km/h
330 04-05-2010 17:56:02 11.4 C 4.31 g/m*3 11.4 C 0 km/h
331 04-05-2010 18:08:02 11.5 C 4.23 g/m*3 11.5 C 0 km/h
332 04-05-2010 18:20:02 11.4 C 4.21 g/m*3 11.4 C 0 km/h
333 04-05-2010 18:32:02 11.2 C 4.16 g/m*3 11.2 C 0 km/h
334 04-05-2010 18:44:02 11.1 C 4.13 g/m*3 11.1 C 0 km/h
335 04-05-2010 18:56:02 11 C 4.3 g/m*3 11 C 0 km/h
336 04-05-2010 19:08:02 11 C 4.3 g/m*3 11 C 0 km/h
337 04-05-2010 19:20:02 12 C 4.16 g/m*3 12 C 0 km/h
338 04-05-2010 19:32:02 11.4 C 4 g/m*3 11.4 C 0 km/h
339 04-05-2010 19:44:02 11 C 4 g/m*3 11 C 0 km/h
340 04-05-2010 19:56:01 11 C 4.2 g/m*3 11 C 0 km/h
341 04-05-2010 20:08:02 10.7 C 4.22 g/m*3 10.7 C 0 km/h
342 04-05-2010 20:20:01 10.6 C 4.49 g/m*3 10.6 C 0 km/h
343 04-05-2010 20:32:01 10.1 C 4.35 g/m*3 10.1 C 0 km/h
344 04-05-2010 20:44:01 9.8 C 4.36 g/m*3 9.8 C 0 km/h
345 04-05-2010 20:56:01 9.4 C 4.34 g/m*3 9.4 C 0 km/h
346 04-05-2010 21:08:02 9.5 C 4.28 g/m*3 9.5 C 0 km/h
347 04-05-2010 21:20:01 9.6 C 4.31 g/m*3 9.6 C 0 km/h
348 04-05-2010 21:32:01 9.7 C 4.61 g/m*3 9.7 C 0 km/h
349 04-05-2010 21:44:01 9.5 C 4.64 g/m*3 9.5 C 0 km/h
350 04-05-2010 21:56:01 8.8 C 4.61 g/m*3 8.8 C 0 km/h
Sensor: Nr:Datum:Temp:Abs-Feuchte:Windchill:Wind:
Aussen-T/F 351 04-05-2010 22:09:04 8.2 C 4.35 g/m*3 8.2 C 0 km/h
352 04-05-2010 22:21:04 8.1 C 4.33 g/m*3 8.1 C 0 km/h
353 04-05-2010 22:33:05 7.8 C 4.24 g/m*3 7.8 C 0 km/h
354 04-05-2010 22:45:05 7.7 C 4.14 g/m*3 7.7 C 0 km/h
355 04-05-2010 22:57:05 7.5 C 4.16 g/m*3 7.5 C 0 km/h
356 04-05-2010 23:09:05 7.4 C 4.14 g/m*3 7.4 C 0 km/h
357 04-05-2010 23:21:05 7.4 C 4.14 g/m*3 7.4 C 0 km/h
358 04-05-2010 23:33:05 7.3 C 4.03 g/m*3 7.3 C 0 km/h
359 04-05-2010 23:45:05 7.3 C 4.03 g/m*3 7.3 C 0 km/h
360 04-05-2010 23:57:05 7 C 3.95 g/m*3 7 C 0 km/h

Legende:
   Min
   Max


Maximal/Minimal-Werte vom 02.05.2010 - 04.05.2010

Sensor Min Max Avg
Temp
(Aussen-T/F)
7 °C
04-05-2010  23:57:05
19.4 °C
02-05-2010  16:06:02
11.1 °C
Abs-Feuchte
(Aussen-T/F)
3.95 g/m*3
04-05-2010  23:57:05
9.18 g/m*3
02-05-2010  17:18:01
6.58 g/m*3
Windchill
(Aussen-T/F)
7 C
04-05-2010  23:57:05
19.4 C
02-05-2010  16:06:02
11.07 C

Die Daten stammen von einer Davis Vantage Pro 2 Wetter-Station und werden unter Linux mit der Software wview2wettercgi und aufbereitet. Alle Angaben erfolgen ohne Gewähr für ihre Vollständigkeit oder Richtigkeit.
Kontakt: Rainer Krienke krienke@uni-koblenz.de . Meine Webseiten an der Uni Koblenz oder privat.
Version: $Revision: 0.78 $